Cerejeira, Brazil
Current Conditions -  °F | °C
As of 10:00 PM on Wednesday 22 Oct 2014 (Local Time) from SBVH Reporting Station
Scattered Clouds Scattered Clouds  
Wind Chill: 75°   Ceiling: Unl
Heat Index: 75°   Visibility: 6mi
Dew Point: 70°   Wind: 3mph
Humidity: 83%   Direction: 80°E
Pressure: 30"   Gusts: NA
Location:  13.19°S, 60.81°W
Report Text: SBVH 230200Z 08003KT 9999 SCT020 SCT100 24/21 Q1016
Loading
Personal Weather Stations






























Interactive Weather Map
Tropical Storm Tracking
New forecast layout! Learn more

10-Day Weather Forecast

Advertisements
Track Severe Weather on mobile